Карточка аэропорта USTR

Внимание!
Информация на этой странице в стадии наполнения.
Если вы не увидели какой-то информации, или заметили неточность - пожалуйста сообщите нам!
Спасибо!
Команда RU-STAFF
Название аэропортаРощино
Название аэропорта (англ.)Roshschino
Превышение378 ft. (115.2 m.)
Координаты57°10.098', 65°19.002'
Высота перехода3000ft
Эшелон переходаQNH⩾1013hPa:FL040; QNH⩾977hPa:FL050; QNH⩽977hPa:FL060
Коды ответчика5101-5137
Зона ОрВДТюмень РПИ (USTV)
Данные METARUSTR 282230Z 23003MPS 9999 SCT028CB OVC040 M03/M06 Q1028 R30/420355 R21/420355 TEMPO 1000 -SHSN BR SCT004 BKN016CB
Проноз погоды (TAF)USTR 281936Z 2821/2921 24003G10MPS 9999 BKN016 TEMPO 2821/2903 1000 -SHSN BR SCT004 BKN016CB FM291200 26006G14MPS 2100 -SHSN BLSN BKN007 BKN016CB TEMPO 2912/2921 0500 +SHSN BLSN VV002
NOTAMshow/hide NOTAM
AWOS   TABLE

Информация о ВПП

ВПП Длина ВПП (м.) Покрытие Курс ВПП Частота ILS
122704Асфальтобетон121 
302704Асфальтобетон301 
033003Асфальтобетон34108.3
213003Асфальтобетон214110.7

Диспетчерские позиции

Позывной Наименование органа УВД Частота
USTR_TWRТюмень-Старт118.200
USTR_GNDТюмень-Руление119.000
USTR_R_APPТюмень-Круг126.100



Спутниковое изображение